createdAt,value
2018-07-30T00:00:55.659Z,21.50
2018-07-30T00:01:55.649Z,21.44
2018-07-30T00:02:55.633Z,21.59
2018-07-30T00:03:55.651Z,21.49
2018-07-30T00:04:55.612Z,21.50
2018-07-30T00:05:55.603Z,21.61
2018-07-30T00:06:55.607Z,21.69
2018-07-30T00:07:55.576Z,21.72
2018-07-30T00:08:55.586Z,21.74
2018-07-30T00:09:55.565Z,21.71
2018-07-30T00:10:55.547Z,21.88
2018-07-30T00:11:55.537Z,21.92
2018-07-30T00:12:55.522Z,21.91
2018-07-30T00:13:55.512Z,21.91
2018-07-30T00:14:55.539Z,22.07
2018-07-30T00:15:55.506Z,22.05
2018-07-30T00:16:55.483Z,22.10
2018-07-30T00:17:55.472Z,22.12
2018-07-30T00:18:55.455Z,22.10
2018-07-30T00:19:55.441Z,22.07
2018-07-30T00:20:55.446Z,22.15
2018-07-30T00:21:55.435Z,22.18
2018-07-30T00:22:55.408Z,22.24
2018-07-30T00:23:55.400Z,22.22
2018-07-30T00:24:55.381Z,22.28
2018-07-30T00:25:55.390Z,22.36
2018-07-30T00:26:55.373Z,22.27
2018-07-30T00:27:55.369Z,22.46
2018-07-30T00:28:55.342Z,22.42
2018-07-30T00:29:55.328Z,22.42
2018-07-30T00:30:55.352Z,22.31
2018-07-30T00:31:55.309Z,22.25
2018-07-30T00:32:55.298Z,22.36
2018-07-30T00:33:55.307Z,22.36
2018-07-30T00:34:55.286Z,22.35
2018-07-30T00:35:55.261Z,22.33
2018-07-30T00:36:55.278Z,22.36
2018-07-30T00:37:55.244Z,22.31
2018-07-30T00:38:55.227Z,22.31
2018-07-30T00:39:55.232Z,22.31
2018-07-30T00:40:55.208Z,22.40
2018-07-30T00:41:55.198Z,22.40
2018-07-30T00:42:55.194Z,22.42
2018-07-30T00:43:55.173Z,22.36
2018-07-30T00:44:55.166Z,22.35
2018-07-30T00:45:55.162Z,22.31
2018-07-30T00:46:55.153Z,22.33
2018-07-30T00:47:55.138Z,22.37
2018-07-30T00:48:55.116Z,22.40
2018-07-30T00:49:55.106Z,22.33
2018-07-30T00:50:55.099Z,22.36
2018-07-30T00:51:55.095Z,22.28
2018-07-30T00:52:55.089Z,22.33
2018-07-30T00:53:55.059Z,22.37
2018-07-30T00:54:55.060Z,22.33
2018-07-30T00:55:55.040Z,22.36
2018-07-30T00:56:55.113Z,22.36
2018-07-30T00:57:55.027Z,22.24
2018-07-30T00:58:55.044Z,22.24
2018-07-30T00:59:54.992Z,22.25
2018-07-30T01:00:54.981Z,22.25
2018-07-30T01:01:54.966Z,22.20
2018-07-30T01:02:54.962Z,22.31
2018-07-30T01:03:54.966Z,22.24
2018-07-30T01:04:54.943Z,22.18
2018-07-30T01:05:54.922Z,22.21
2018-07-30T01:06:54.916Z,22.14
2018-07-30T01:07:54.895Z,22.21
2018-07-30T01:08:54.896Z,22.18
2018-07-30T01:09:54.902Z,22.18
2018-07-30T01:10:54.867Z,22.17
2018-07-30T01:11:54.854Z,22.21
2018-07-30T01:12:54.843Z,22.20
2018-07-30T01:13:54.835Z,22.15
2018-07-30T01:14:54.846Z,22.10
2018-07-30T01:15:54.830Z,22.12
2018-07-30T01:16:54.803Z,22.09
2018-07-30T01:17:54.783Z,22.07
2018-07-30T01:18:54.777Z,22.05
2018-07-30T01:19:54.765Z,22.05
2018-07-30T01:20:54.763Z,22.05
2018-07-30T01:21:54.755Z,22.15
2018-07-30T01:22:54.738Z,22.03
2018-07-30T01:23:54.720Z,22.18
2018-07-30T01:24:54.709Z,22.14
2018-07-30T01:25:54.722Z,22.07
2018-07-30T01:26:54.691Z,22.10
2018-07-30T01:27:54.691Z,22.18
2018-07-30T01:28:54.659Z,22.09
2018-07-30T01:29:54.657Z,22.09
2018-07-30T01:30:54.646Z,22.09
2018-07-30T01:31:54.653Z,22.12
2018-07-30T01:32:54.623Z,22.17
2018-07-30T01:33:54.620Z,22.10
2018-07-30T01:34:54.599Z,22.10
2018-07-30T01:35:54.586Z,22.09
2018-07-30T01:36:54.576Z,22.18
2018-07-30T01:37:54.576Z,22.17
2018-07-30T01:38:54.551Z,22.18
2018-07-30T01:39:54.556Z,22.22
2018-07-30T01:40:54.531Z,22.25
2018-07-30T01:41:54.541Z,22.18
2018-07-30T01:42:54.514Z,22.21
2018-07-30T01:43:54.499Z,22.21
2018-07-30T01:44:54.484Z,22.20
2018-07-30T01:45:54.494Z,22.20
2018-07-30T01:46:54.461Z,22.22
2018-07-30T01:47:54.468Z,22.20
2018-07-30T01:48:54.445Z,22.18
2018-07-30T01:49:54.426Z,22.18
2018-07-30T01:50:54.420Z,22.15
2018-07-30T01:51:54.421Z,22.09
2018-07-30T01:52:54.420Z,22.06
2018-07-30T01:53:54.389Z,22.05
2018-07-30T01:54:54.374Z,22.09
2018-07-30T01:55:54.357Z,21.91
2018-07-30T01:56:54.356Z,21.91
2018-07-30T01:57:54.357Z,21.94
2018-07-30T01:58:54.357Z,21.92
2018-07-30T01:59:54.606Z,21.91
2018-07-30T02:00:54.341Z,21.84
2018-07-30T02:01:54.291Z,21.80
2018-07-30T02:02:54.282Z,21.77
2018-07-30T02:03:54.292Z,21.74
2018-07-30T02:04:54.270Z,21.62
2018-07-30T02:05:54.247Z,21.65
2018-07-30T02:06:54.238Z,21.65
2018-07-30T02:07:54.237Z,21.65
2018-07-30T02:08:54.224Z,21.59
2018-07-30T02:09:54.228Z,21.62
2018-07-30T02:10:54.197Z,21.59
2018-07-30T02:11:54.177Z,21.54
2018-07-30T02:12:54.173Z,21.54
2018-07-30T02:13:54.158Z,21.49
2018-07-30T02:14:54.177Z,21.47
2018-07-30T02:15:54.149Z,21.47
2018-07-30T02:16:54.120Z,21.46
2018-07-30T02:17:54.111Z,21.37
2018-07-30T02:18:54.100Z,21.32
2018-07-30T02:19:54.095Z,21.35
2018-07-30T02:20:54.096Z,21.24
2018-07-30T02:21:54.076Z,21.24
2018-07-30T02:22:54.059Z,21.22
2018-07-30T02:23:54.048Z,21.17
2018-07-30T02:24:54.035Z,21.12
2018-07-30T02:25:54.024Z,21.14
2018-07-30T02:26:54.025Z,21.07
2018-07-30T02:27:54.016Z,21.10
2018-07-30T02:28:53.986Z,21.01
2018-07-30T02:29:53.978Z,21.10
2018-07-30T02:30:53.965Z,20.95
2018-07-30T02:31:53.963Z,21.03
2018-07-30T02:32:53.946Z,20.94
2018-07-30T02:33:53.945Z,20.95
2018-07-30T02:34:53.920Z,20.95
2018-07-30T02:35:53.920Z,20.85
2018-07-30T02:36:53.896Z,20.84
2018-07-30T02:37:53.900Z,20.87
2018-07-30T02:38:53.881Z,20.84
2018-07-30T02:39:53.878Z,20.74
2018-07-30T02:40:53.856Z,20.70
2018-07-30T02:41:53.843Z,20.77
2018-07-30T02:42:53.849Z,20.76
2018-07-30T02:43:53.821Z,20.70
2018-07-30T02:44:53.808Z,20.70
2018-07-30T02:45:53.818Z,20.66
2018-07-30T02:46:53.791Z,20.64
2018-07-30T02:47:53.802Z,20.74
2018-07-30T02:48:53.765Z,20.76
2018-07-30T02:49:53.751Z,20.64
2018-07-30T02:50:53.741Z,20.61
2018-07-30T02:51:53.762Z,20.73
2018-07-30T02:52:53.715Z,20.62
2018-07-30T02:53:53.722Z,20.74
2018-07-30T02:54:53.703Z,20.82
2018-07-30T02:55:53.685Z,20.84
2018-07-30T02:56:53.676Z,20.76
2018-07-30T02:57:53.677Z,20.76
2018-07-30T02:58:53.668Z,20.72
2018-07-30T02:59:53.645Z,20.72
2018-07-30T03:00:53.630Z,20.67
2018-07-30T03:01:53.620Z,20.69
2018-07-30T03:02:53.608Z,20.70
2018-07-30T03:03:53.610Z,20.66
2018-07-30T03:04:53.594Z,20.62
2018-07-30T03:05:53.569Z,20.66
2018-07-30T03:06:53.564Z,20.62
2018-07-30T03:07:53.555Z,20.62
2018-07-30T03:08:53.535Z,20.64
2018-07-30T03:09:53.564Z,20.59
2018-07-30T03:10:53.515Z,20.52
2018-07-30T03:11:53.503Z,20.57
2018-07-30T03:12:53.497Z,20.51
2018-07-30T03:13:53.486Z,20.54
2018-07-30T03:14:53.467Z,20.59
2018-07-30T03:15:53.483Z,20.58
2018-07-30T03:16:53.442Z,20.50
2018-07-30T03:17:53.439Z,20.38
2018-07-30T03:18:53.427Z,20.38
2018-07-30T03:19:53.412Z,20.48
2018-07-30T03:20:53.425Z,20.41
2018-07-30T03:21:53.398Z,20.39
2018-07-30T03:22:53.381Z,20.41
2018-07-30T03:23:53.371Z,20.29
2018-07-30T03:24:53.358Z,20.32
2018-07-30T03:25:53.350Z,20.31
2018-07-30T03:26:53.347Z,20.21
2018-07-30T03:27:53.344Z,20.26
2018-07-30T03:28:53.386Z,20.24
2018-07-30T03:29:53.304Z,20.18
2018-07-30T03:30:53.291Z,20.08
2018-07-30T03:31:53.298Z,20.10
2018-07-30T03:32:53.270Z,20.14
2018-07-30T03:33:53.273Z,20.10
2018-07-30T03:34:53.245Z,20.01
2018-07-30T03:35:53.235Z,19.99
2018-07-30T03:36:53.221Z,20.05
2018-07-30T03:37:53.231Z,19.98
2018-07-30T03:38:53.199Z,19.99
2018-07-30T03:39:53.199Z,19.99
2018-07-30T03:40:53.172Z,20.05
2018-07-30T03:41:53.167Z,19.99
2018-07-30T03:42:53.160Z,19.99
2018-07-30T03:43:53.183Z,19.98
2018-07-30T03:44:53.133Z,20.02
2018-07-30T03:45:53.135Z,19.99
2018-07-30T03:46:53.106Z,19.99
2018-07-30T03:47:53.116Z,19.98
2018-07-30T03:48:53.089Z,19.95
2018-07-30T03:49:53.183Z,19.86
2018-07-30T03:50:53.063Z,19.92
2018-07-30T03:51:53.062Z,19.91
2018-07-30T03:52:53.042Z,19.94
2018-07-30T03:53:53.028Z,19.95
2018-07-30T03:54:53.028Z,19.87
2018-07-30T03:55:53.007Z,19.91
2018-07-30T03:56:52.993Z,19.91
2018-07-30T03:57:53.007Z,19.86
2018-07-30T03:58:52.970Z,19.84
2018-07-30T03:59:53.023Z,19.91
2018-07-30T04:00:52.953Z,19.86
2018-07-30T04:01:52.938Z,19.92
2018-07-30T04:02:52.923Z,19.91
2018-07-30T04:03:52.932Z,19.88
2018-07-30T04:04:52.900Z,19.94
2018-07-30T04:05:52.958Z,19.88
2018-07-30T04:06:52.886Z,19.91
2018-07-30T04:07:52.872Z,19.91
2018-07-30T04:08:52.860Z,19.94
2018-07-30T04:09:52.861Z,19.92
2018-07-30T04:10:52.836Z,19.96
2018-07-30T04:11:52.834Z,19.92
2018-07-30T04:12:52.810Z,19.99
2018-07-30T04:13:52.806Z,19.99
2018-07-30T04:14:52.793Z,20.02
2018-07-30T04:15:52.806Z,19.99
2018-07-30T04:16:52.782Z,20.05
2018-07-30T04:17:52.757Z,20.02
2018-07-30T04:18:52.748Z,20.03
2018-07-30T04:19:52.737Z,20.06
2018-07-30T04:20:52.726Z,20.10
2018-07-30T04:21:52.750Z,20.05
2018-07-30T04:22:52.701Z,20.10
2018-07-30T04:23:52.686Z,20.16
2018-07-30T04:24:52.681Z,20.13
2018-07-30T04:25:52.664Z,20.08
2018-07-30T04:26:52.666Z,20.18
2018-07-30T04:27:52.682Z,20.23
2018-07-30T04:28:52.631Z,20.21
2018-07-30T04:29:52.625Z,20.29
2018-07-30T04:30:52.639Z,20.26
2018-07-30T04:31:52.607Z,20.32
2018-07-30T04:32:52.612Z,20.33
2018-07-30T04:33:52.594Z,20.36
2018-07-30T04:34:52.563Z,20.41
2018-07-30T04:35:52.554Z,20.39
2018-07-30T04:36:52.544Z,20.42
2018-07-30T04:37:52.530Z,20.39
2018-07-30T04:38:52.650Z,20.38
2018-07-30T04:39:52.514Z,20.52
2018-07-30T04:40:52.492Z,20.41
2018-07-30T04:41:52.487Z,20.54
2018-07-30T04:42:52.475Z,20.54
2018-07-30T04:43:52.565Z,20.54
2018-07-30T04:44:52.465Z,20.57
2018-07-30T04:45:52.442Z,20.54
2018-07-30T04:46:52.431Z,20.55
2018-07-30T04:47:52.430Z,20.57
2018-07-30T04:48:52.423Z,20.64
2018-07-30T04:49:52.398Z,20.57
2018-07-30T04:50:52.396Z,20.62
2018-07-30T04:51:52.373Z,20.59
2018-07-30T04:52:52.364Z,20.72
2018-07-30T04:53:52.373Z,20.72
2018-07-30T04:54:52.338Z,20.70
2018-07-30T04:55:52.331Z,20.66
2018-07-30T04:56:52.350Z,20.61
2018-07-30T04:57:52.308Z,20.69
2018-07-30T04:58:52.299Z,20.70
2018-07-30T04:59:52.318Z,20.69
2018-07-30T05:00:52.281Z,20.73
2018-07-30T05:01:52.260Z,20.74
2018-07-30T05:02:52.264Z,20.66
2018-07-30T05:03:52.306Z,20.64
2018-07-30T05:04:52.231Z,20.66
2018-07-30T05:05:52.230Z,20.72
2018-07-30T05:06:52.209Z,20.70
2018-07-30T05:07:52.193Z,20.76
2018-07-30T05:08:52.192Z,20.77
2018-07-30T05:09:52.169Z,20.67
2018-07-30T05:10:52.188Z,20.77
2018-07-30T05:11:52.152Z,20.73
2018-07-30T05:12:52.134Z,20.84
2018-07-30T05:13:52.128Z,20.87
2018-07-30T05:14:52.130Z,20.87
2018-07-30T05:15:52.104Z,20.87
2018-07-30T05:16:52.108Z,20.92
2018-07-30T05:17:52.080Z,20.87
2018-07-30T05:18:52.074Z,20.87
2018-07-30T05:19:52.059Z,20.92
2018-07-30T05:20:52.065Z,20.92
2018-07-30T05:21:52.057Z,21.01
2018-07-30T05:22:52.028Z,20.95
2018-07-30T05:23:52.013Z,21.03
2018-07-30T05:24:52.002Z,21.10
2018-07-30T05:25:51.994Z,21.06
2018-07-30T05:26:51.991Z,21.14
2018-07-30T05:27:52.004Z,21.12
2018-07-30T05:28:51.954Z,21.10
2018-07-30T05:29:51.952Z,21.09
2018-07-30T05:30:51.936Z,21.09
2018-07-30T05:31:51.926Z,21.06
2018-07-30T05:32:51.927Z,21.12
2018-07-30T05:33:51.916Z,21.19
2018-07-30T05:34:51.890Z,21.17
2018-07-30T05:35:51.876Z,21.16
2018-07-30T05:36:51.869Z,21.19
2018-07-30T05:37:51.858Z,21.17
2018-07-30T05:38:51.882Z,21.21
2018-07-30T05:39:51.835Z,21.19
2018-07-30T05:40:51.827Z,21.10
2018-07-30T05:41:51.811Z,21.10
2018-07-30T05:42:51.875Z,21.17
2018-07-30T05:43:51.799Z,21.16
2018-07-30T05:44:51.788Z,21.17
2018-07-30T05:45:51.767Z,21.13
2018-07-30T05:46:51.757Z,21.17
2018-07-30T05:47:51.755Z,21.21
2018-07-30T05:48:51.753Z,21.22
2018-07-30T05:49:51.716Z,21.25
2018-07-30T05:50:51.725Z,21.19
2018-07-30T05:51:51.698Z,21.14
2018-07-30T05:52:51.686Z,21.17
2018-07-30T05:53:51.680Z,21.24
2018-07-30T05:54:51.686Z,21.38
2018-07-30T05:55:51.663Z,21.31
2018-07-30T05:56:51.642Z,21.38
2018-07-30T05:57:51.638Z,21.32
2018-07-30T05:58:51.614Z,21.49
2018-07-30T05:59:51.686Z,21.47
2018-07-30T06:00:51.602Z,21.46
2018-07-30T06:01:51.600Z,21.53
2018-07-30T06:02:51.572Z,21.50
2018-07-30T06:03:51.564Z,21.61
2018-07-30T06:04:51.551Z,21.64
2018-07-30T06:05:51.552Z,21.65
2018-07-30T06:06:51.528Z,21.69
2018-07-30T06:07:51.542Z,21.65
2018-07-30T06:08:51.506Z,21.74
2018-07-30T06:09:51.502Z,21.80
2018-07-30T06:10:51.512Z,21.86
2018-07-30T06:11:51.472Z,21.82
2018-07-30T06:12:51.463Z,21.82
2018-07-30T06:13:51.458Z,21.90
2018-07-30T06:14:51.437Z,21.92
2018-07-30T06:15:51.429Z,21.88
2018-07-30T06:16:51.444Z,21.98
2018-07-30T06:17:51.409Z,22.00
2018-07-30T06:18:51.396Z,21.92
2018-07-30T06:19:51.395Z,22.05
2018-07-30T06:20:51.378Z,21.94
2018-07-30T06:21:51.359Z,22.06
2018-07-30T06:22:51.361Z,21.98
2018-07-30T06:23:51.334Z,22.02
2018-07-30T06:24:51.323Z,22.14
2018-07-30T06:25:51.332Z,22.12
2018-07-30T06:26:51.303Z,22.12
2018-07-30T06:27:51.324Z,22.20
2018-07-30T06:28:51.280Z,22.17
2018-07-30T06:29:51.271Z,22.20
2018-07-30T06:30:51.253Z,22.21
2018-07-30T06:31:51.344Z,22.36
2018-07-30T06:32:51.233Z,22.25
2018-07-30T06:33:51.233Z,22.45
2018-07-30T06:34:51.209Z,22.39
2018-07-30T06:35:51.204Z,22.61
2018-07-30T06:36:51.190Z,22.65
2018-07-30T06:37:51.190Z,22.73
2018-07-30T06:38:51.201Z,22.76
2018-07-30T06:39:51.158Z,22.77
2018-07-30T06:40:51.147Z,22.85
2018-07-30T06:41:51.133Z,23.00
2018-07-30T06:42:51.151Z,23.10
2018-07-30T06:43:51.117Z,23.15
2018-07-30T06:44:51.113Z,23.22
2018-07-30T06:45:51.089Z,23.27
2018-07-30T06:46:51.076Z,23.42
2018-07-30T06:47:51.098Z,23.48
2018-07-30T06:48:51.061Z,23.55
2018-07-30T06:49:51.092Z,23.72
2018-07-30T06:50:57.604Z,23.68
2018-07-30T06:51:51.022Z,23.66
2018-07-30T06:52:51.002Z,23.91
2018-07-30T06:53:50.997Z,24.12
2018-07-30T06:54:50.987Z,24.16
2018-07-30T06:55:51.000Z,24.22
2018-07-30T06:56:50.965Z,24.42
2018-07-30T06:57:50.954Z,24.88
2018-07-30T06:58:50.941Z,25.32
2018-07-30T06:59:50.937Z,25.65
2018-07-30T07:00:50.937Z,25.94
2018-07-30T07:01:50.924Z,26.15
2018-07-30T07:02:50.897Z,26.45
2018-07-30T07:03:50.884Z,26.65
2018-07-30T07:04:50.876Z,26.87
2018-07-30T07:05:50.880Z,27.17
2018-07-30T07:06:50.855Z,27.37
2018-07-30T07:07:50.858Z,27.54
2018-07-30T07:08:50.825Z,27.88
2018-07-30T07:09:50.821Z,28.14
2018-07-30T07:10:50.848Z,28.41
2018-07-30T07:11:50.797Z,28.64
2018-07-30T07:12:50.791Z,28.83
2018-07-30T07:13:50.785Z,28.98
2018-07-30T07:14:50.761Z,29.26
2018-07-30T07:15:50.798Z,29.45
2018-07-30T07:16:50.796Z,29.60
2018-07-30T07:17:50.733Z,29.67
2018-07-30T07:18:50.721Z,29.78
2018-07-30T07:19:50.722Z,29.94
2018-07-30T07:20:50.701Z,30.13
2018-07-30T07:21:50.723Z,30.15
2018-07-30T07:22:50.680Z,30.24
2018-07-30T07:23:50.669Z,30.20
2018-07-30T07:24:50.673Z,30.37
2018-07-30T07:25:50.644Z,30.55
2018-07-30T07:26:50.705Z,30.67
2018-07-30T07:27:50.653Z,30.67
2018-07-30T07:28:50.613Z,30.73
2018-07-30T07:29:50.601Z,30.76
2018-07-30T07:30:50.598Z,30.77
2018-07-30T07:31:50.574Z,30.77
2018-07-30T07:32:50.586Z,30.76
2018-07-30T07:33:50.560Z,30.70
2018-07-30T07:34:50.584Z,30.79
2018-07-30T07:35:50.531Z,30.69
2018-07-30T07:36:50.541Z,30.88
2018-07-30T07:37:50.541Z,31.06
2018-07-30T07:38:50.503Z,31.02
2018-07-30T07:39:50.492Z,31.12
2018-07-30T07:40:50.477Z,31.17
2018-07-30T07:41:50.465Z,31.21
2018-07-30T07:42:50.466Z,31.28
2018-07-30T07:43:50.486Z,31.26
2018-07-30T07:44:50.503Z,31.41
2018-07-30T07:45:50.423Z,31.46
2018-07-30T07:46:50.408Z,31.54
2018-07-30T07:47:50.417Z,31.53
2018-07-30T07:48:50.406Z,31.50
2018-07-30T07:49:50.564Z,31.57
2018-07-30T07:50:50.605Z,31.56
2018-07-30T07:51:50.356Z,31.78
2018-07-30T07:52:50.350Z,31.80
2018-07-30T07:53:50.337Z,31.81
2018-07-30T07:54:50.368Z,31.81
2018-07-30T07:55:50.319Z,31.84
2018-07-30T07:56:50.307Z,31.85
2018-07-30T07:57:50.295Z,31.84
2018-07-30T07:58:50.285Z,31.80
2018-07-30T07:59:50.272Z,31.84
2018-07-30T08:00:50.341Z,31.85
2018-07-30T08:01:50.248Z,31.86
2018-07-30T08:02:50.232Z,31.85
2018-07-30T08:03:50.227Z,31.72
2018-07-30T08:04:50.224Z,31.75
2018-07-30T08:05:50.207Z,31.69
2018-07-30T08:06:50.224Z,31.72
2018-07-30T08:07:50.185Z,31.76
2018-07-30T08:08:50.173Z,31.76
2018-07-30T08:09:50.326Z,31.58
2018-07-30T08:10:50.204Z,31.58
2018-07-30T08:11:50.174Z,31.47
2018-07-30T08:12:50.145Z,31.28
2018-07-30T08:13:50.120Z,31.32
2018-07-30T08:14:50.111Z,31.29
2018-07-30T08:15:50.098Z,31.39
2018-07-30T08:16:50.086Z,31.43
2018-07-30T08:17:50.089Z,31.50
2018-07-30T08:18:50.076Z,31.44
2018-07-30T08:19:50.053Z,31.46
2018-07-30T08:20:50.049Z,31.36
2018-07-30T08:21:50.035Z,31.43
2018-07-30T08:22:50.039Z,31.48
2018-07-30T08:23:50.011Z,31.48
2018-07-30T08:24:50.014Z,31.41
2018-07-30T08:25:49.990Z,31.23
2018-07-30T08:26:49.986Z,31.31
2018-07-30T08:27:50.001Z,31.29
2018-07-30T08:28:49.964Z,31.19
2018-07-30T08:29:49.946Z,31.12
2018-07-30T08:30:49.957Z,31.21
2018-07-30T08:31:49.927Z,31.12
2018-07-30T08:32:49.911Z,31.14
2018-07-30T08:33:50.030Z,31.17
2018-07-30T08:34:49.889Z,31.21
2018-07-30T08:35:49.879Z,31.23
2018-07-30T08:36:49.882Z,31.32
2018-07-30T08:37:49.855Z,31.25
2018-07-30T08:38:49.866Z,31.14
2018-07-30T08:39:49.835Z,30.91
2018-07-30T08:40:49.829Z,30.57
2018-07-30T08:41:49.816Z,30.46
2018-07-30T08:42:49.821Z,30.49
2018-07-30T08:43:49.796Z,30.51
2018-07-30T08:44:49.798Z,30.64
2018-07-30T08:45:49.778Z,30.82
2018-07-30T08:46:49.767Z,30.80
2018-07-30T08:47:49.752Z,30.83
2018-07-30T08:48:49.811Z,30.91
2018-07-30T08:49:49.747Z,30.89
2018-07-30T08:50:49.721Z,31.10
2018-07-30T08:51:49.710Z,31.06
2018-07-30T08:52:49.699Z,31.16
2018-07-30T08:53:49.702Z,31.14
2018-07-30T08:54:49.695Z,31.12
2018-07-30T08:55:49.672Z,31.14
2018-07-30T08:56:49.660Z,31.10
2018-07-30T08:57:49.646Z,31.13
2018-07-30T08:58:49.635Z,31.12
2018-07-30T08:59:49.635Z,31.28
2018-07-30T09:00:49.628Z,31.25
2018-07-30T09:01:49.603Z,31.41
2018-07-30T09:02:49.586Z,31.39
2018-07-30T09:03:49.579Z,31.62
2018-07-30T09:04:49.568Z,31.43
2018-07-30T09:05:49.596Z,31.36
2018-07-30T09:06:49.546Z,31.31
2018-07-30T09:07:49.536Z,31.44
2018-07-30T09:08:49.532Z,31.56
2018-07-30T09:09:49.515Z,31.57
2018-07-30T09:10:49.509Z,31.61
2018-07-30T09:11:49.517Z,31.66
2018-07-30T09:12:49.643Z,31.69
2018-07-30T09:13:49.474Z,31.81
2018-07-30T09:14:49.460Z,31.84
2018-07-30T09:15:49.449Z,31.88
2018-07-30T09:16:49.486Z,31.89
2018-07-30T09:17:49.446Z,31.85
2018-07-30T09:18:49.412Z,31.78
2018-07-30T09:19:49.406Z,31.70
2018-07-30T09:20:49.393Z,31.58
2018-07-30T09:21:49.385Z,31.32
2018-07-30T09:22:49.394Z,31.21
2018-07-30T09:23:49.377Z,31.25
2018-07-30T09:24:49.352Z,31.10
2018-07-30T09:25:49.339Z,31.31
2018-07-30T09:26:49.358Z,31.31
2018-07-30T09:27:49.318Z,31.31
2018-07-30T09:28:49.331Z,31.41
2018-07-30T09:29:49.316Z,31.50
2018-07-30T09:30:49.285Z,31.62
2018-07-30T09:31:49.276Z,31.80
2018-07-30T09:32:49.286Z,31.86
2018-07-30T09:33:49.271Z,31.96
2018-07-30T09:34:49.245Z,31.85
2018-07-30T09:35:49.247Z,31.88
2018-07-30T09:36:49.218Z,31.84
2018-07-30T09:37:49.215Z,31.85
2018-07-30T09:38:49.254Z,31.89
2018-07-30T09:39:49.191Z,32.04
2018-07-30T09:40:49.183Z,32.10
2018-07-30T09:41:49.184Z,32.14
2018-07-30T09:42:49.159Z,32.29
2018-07-30T09:43:49.150Z,32.29
2018-07-30T09:44:49.214Z,32.22
2018-07-30T09:45:49.129Z,32.23
2018-07-30T09:46:49.117Z,32.37
2018-07-30T09:47:49.121Z,32.33
2018-07-30T09:48:49.102Z,32.25
2018-07-30T09:49:49.086Z,32.29
2018-07-30T09:50:49.084Z,32.33
2018-07-30T09:51:49.069Z,32.25
2018-07-30T09:52:49.050Z,32.30
2018-07-30T09:53:49.061Z,32.38
2018-07-30T09:54:49.030Z,32.45
2018-07-30T09:55:49.055Z,32.50
2018-07-30T09:56:49.012Z,32.48
2018-07-30T09:57:48.995Z,32.38
2018-07-30T09:58:48.990Z,32.29
2018-07-30T09:59:48.991Z,32.30
2018-07-30T10:00:48.966Z,32.32
2018-07-30T10:01:48.971Z,32.37
2018-07-30T10:02:48.947Z,32.38
2018-07-30T10:03:48.929Z,32.47
2018-07-30T10:04:48.924Z,32.51
2018-07-30T10:05:48.940Z,32.55
2018-07-30T10:06:48.924Z,32.56
2018-07-30T10:07:48.894Z,32.70
2018-07-30T10:08:48.885Z,32.84
2018-07-30T10:09:48.871Z,32.89
2018-07-30T10:10:48.861Z,32.99
2018-07-30T10:11:48.980Z,32.79
2018-07-30T10:12:48.854Z,32.93
2018-07-30T10:13:48.829Z,32.82
2018-07-30T10:14:48.820Z,32.93
2018-07-30T10:15:48.809Z,32.84
2018-07-30T10:16:48.798Z,32.92
2018-07-30T10:17:48.856Z,33.06
2018-07-30T10:18:48.772Z,33.09
2018-07-30T10:19:48.757Z,32.99
2018-07-30T10:20:48.751Z,33.09
2018-07-30T10:21:48.745Z,33.28
2018-07-30T10:22:48.729Z,33.34
2018-07-30T10:23:48.844Z,33.59
2018-07-30T10:24:48.707Z,33.72
2018-07-30T10:25:48.702Z,33.79
2018-07-30T10:26:48.690Z,33.88
2018-07-30T10:27:48.684Z,34.08
2018-07-30T10:28:48.740Z,34.13
2018-07-30T10:29:48.678Z,34.21
2018-07-30T10:30:48.661Z,34.22
2018-07-30T10:31:48.638Z,33.98
2018-07-30T10:32:48.633Z,33.87
2018-07-30T10:33:48.616Z,33.81
2018-07-30T10:34:48.619Z,33.84
2018-07-30T10:35:48.606Z,33.90
2018-07-30T10:36:48.591Z,33.86
2018-07-30T10:37:48.577Z,33.81
2018-07-30T10:38:48.567Z,33.69
2018-07-30T10:39:48.580Z,33.63
2018-07-30T10:40:48.541Z,33.61
2018-07-30T10:41:48.552Z,33.47
2018-07-30T10:42:48.519Z,33.34
2018-07-30T10:43:48.513Z,33.31
2018-07-30T10:44:48.499Z,33.16
2018-07-30T10:45:48.502Z,33.01
2018-07-30T10:46:48.484Z,33.12
2018-07-30T10:47:48.492Z,33.00
2018-07-30T10:48:48.466Z,33.03
2018-07-30T10:49:48.456Z,32.99
2018-07-30T10:50:48.450Z,33.06
2018-07-30T10:51:48.426Z,33.14
2018-07-30T10:52:48.418Z,33.07
2018-07-30T10:53:48.460Z,33.12
2018-07-30T10:54:48.392Z,33.23
2018-07-30T10:55:48.408Z,33.28
2018-07-30T10:56:48.368Z,33.29
2018-07-30T10:57:48.362Z,33.45
2018-07-30T10:58:48.353Z,33.38
2018-07-30T10:59:48.352Z,33.22
2018-07-30T11:00:48.363Z,33.22
2018-07-30T11:01:48.325Z,33.29
2018-07-30T11:02:48.310Z,33.38
2018-07-30T11:03:48.299Z,33.61
2018-07-30T11:04:48.290Z,33.71
2018-07-30T11:05:48.292Z,33.61
2018-07-30T11:06:48.296Z,33.69
2018-07-30T11:07:48.307Z,33.66
2018-07-30T11:08:48.253Z,33.57
2018-07-30T11:09:48.304Z,33.49
2018-07-30T11:10:48.239Z,33.50
2018-07-30T11:11:48.225Z,33.47
2018-07-30T11:12:48.244Z,33.39
2018-07-30T11:13:48.189Z,33.47
2018-07-30T11:14:48.229Z,33.47
2018-07-30T11:15:48.177Z,33.49
2018-07-30T11:16:48.160Z,33.57
2018-07-30T11:17:48.180Z,33.59
2018-07-30T11:18:48.137Z,33.53
2018-07-30T11:19:48.142Z,33.54
2018-07-30T11:20:48.117Z,33.65
2018-07-30T11:21:48.108Z,33.72
2018-07-30T11:22:48.094Z,33.90
2018-07-30T11:23:48.135Z,34.06
2018-07-30T11:24:48.080Z,34.35
2018-07-30T11:25:48.066Z,34.43
2018-07-30T11:26:48.055Z,34.35
2018-07-30T11:27:48.046Z,34.49
2018-07-30T11:28:48.053Z,34.61
2018-07-30T11:29:48.068Z,34.53
2018-07-30T11:30:48.015Z,34.65
2018-07-30T11:31:48.010Z,34.59
2018-07-30T11:32:47.995Z,34.69
2018-07-30T11:33:47.979Z,34.61
2018-07-30T11:34:48.024Z,34.58
2018-07-30T11:35:47.973Z,34.39
2018-07-30T11:36:47.950Z,34.21
2018-07-30T11:37:47.943Z,34.22
2018-07-30T11:38:47.928Z,34.12
2018-07-30T11:39:47.917Z,33.94
2018-07-30T11:40:47.921Z,33.72
2018-07-30T11:41:47.909Z,33.65
2018-07-30T11:42:47.935Z,33.54
2018-07-30T11:43:47.877Z,33.50
2018-07-30T11:44:47.867Z,33.42
2018-07-30T11:45:47.900Z,33.65
2018-07-30T11:46:47.849Z,33.79
2018-07-30T11:47:47.847Z,34.03
2018-07-30T11:48:47.884Z,34.28
2018-07-30T11:49:47.830Z,34.52
2018-07-30T11:50:47.804Z,34.64
2018-07-30T11:51:47.807Z,34.62
2018-07-30T11:52:47.787Z,34.82
2018-07-30T11:53:47.790Z,34.70
2018-07-30T11:54:47.756Z,34.50
2018-07-30T11:55:47.758Z,34.21
2018-07-30T11:56:47.769Z,33.88
2018-07-30T11:57:47.729Z,33.44
2018-07-30T11:58:47.723Z,32.89
2018-07-30T11:59:47.715Z,32.72
2018-07-30T12:00:47.701Z,32.47
2018-07-30T12:01:47.737Z,32.44
2018-07-30T12:02:47.704Z,32.35
2018-07-30T12:03:47.677Z,32.30
2018-07-30T12:04:47.656Z,32.14
2018-07-30T12:05:47.662Z,32.06
2018-07-30T12:06:47.635Z,31.96
2018-07-30T12:07:47.651Z,31.91
2018-07-30T12:08:47.623Z,32.03
2018-07-30T12:09:47.604Z,32.04
2018-07-30T12:10:47.589Z,31.92
2018-07-30T12:11:47.593Z,31.81
2018-07-30T12:12:47.575Z,31.91
2018-07-30T12:13:47.593Z,31.91
2018-07-30T12:14:47.550Z,31.89
2018-07-30T12:15:47.537Z,31.86
2018-07-30T12:16:47.528Z,31.86
2018-07-30T12:17:47.534Z,31.73
2018-07-30T12:18:47.507Z,31.70
2018-07-30T12:19:47.535Z,31.88
2018-07-30T12:20:47.484Z,32.03
2018-07-30T12:21:47.568Z,32.30
2018-07-30T12:22:47.464Z,32.44
2018-07-30T12:23:47.507Z,32.52
2018-07-30T12:24:47.446Z,32.70
2018-07-30T12:25:47.435Z,32.89
2018-07-30T12:26:47.425Z,33.00
2018-07-30T12:27:47.413Z,33.19
2018-07-30T12:28:47.417Z,33.26
2018-07-30T12:29:47.420Z,33.34
2018-07-30T12:30:47.379Z,33.53
2018-07-30T12:31:47.369Z,33.56
2018-07-30T12:32:47.364Z,33.63
2018-07-30T12:33:47.352Z,33.69
2018-07-30T12:34:47.358Z,33.79
2018-07-30T12:35:47.345Z,33.95
2018-07-30T12:36:47.314Z,33.90
2018-07-30T12:38:08.317Z,33.98
2018-07-30T12:38:47.298Z,33.94
2018-07-30T12:39:47.283Z,34.05
2018-07-30T12:40:47.294Z,34.09
2018-07-30T12:41:47.297Z,34.32
2018-07-30T12:42:47.254Z,34.25
2018-07-30T12:43:47.253Z,34.40
2018-07-30T12:44:47.255Z,34.65
2018-07-30T12:45:47.221Z,34.62
2018-07-30T12:46:47.241Z,34.66
2018-07-30T12:47:47.218Z,34.44
2018-07-30T12:48:47.197Z,34.09
2018-07-30T12:49:47.183Z,33.82
2018-07-30T12:50:47.174Z,33.63
2018-07-30T12:51:47.212Z,33.41
2018-07-30T12:52:47.151Z,33.29